Time;durP1;ratioP1;P1;durP2;ratioP2;P2;SDS_P1;SDS_P2;PMS_P1;PMS_P2;Temp;Humidity;BMP_temperature;BMP_pressure;BME280_temperature;BME280_humidity;BME280_pressure;Samples;Min_cycle;Max_cycle;Signal;HPM_P1;HPM_P2
2022/09/23 00:00:58;;;;;;;10.00;7.40;;;;;;;7.14;100.00;97089.31;108099;1270;22523;-80
2022/09/23 00:03:41;;;;;;;8.70;7.10;;;;;;;7.14;100.00;97086.04;108119;1270;23345;-80
2022/09/23 00:06:15;;;;;;;9.10;7.20;;;;;;;7.14;100.00;97085.83;108156;1270;23859;-80
2022/09/23 00:08:48;;;;;;;10.70;7.10;;;;;;;7.14;100.00;97085.73;107976;1270;33997;-80
2022/09/23 00:11:21;;;;;;;8.90;7.70;;;;;;;7.13;100.00;97087.04;108063;1270;24206;-81
2022/09/23 00:13:57;;;;;;;10.40;7.50;;;;;;;7.13;100.00;97085.03;108013;1270;22614;-81
2022/09/23 00:16:31;;;;;;;11.40;8.20;;;;;;;7.15;100.00;97084.99;108160;1270;22568;-80
2022/09/23 00:19:03;;;;;;;9.50;7.00;;;;;;;7.16;100.00;97083.42;108045;1270;27939;-80
2022/09/23 00:21:38;;;;;;;9.00;7.20;;;;;;;7.15;100.00;97080.48;108172;1270;23832;-80
2022/09/23 00:24:09;;;;;;;10.10;7.10;;;;;;;7.14;100.00;97078.72;108092;1270;23810;-80
2022/09/23 00:26:40;;;;;;;9.00;7.60;;;;;;;7.14;100.00;97076.24;108115;1270;22569;-80
2022/09/23 00:29:11;;;;;;;9.60;7.50;;;;;;;7.14;100.00;97074.77;108045;1270;30506;-80
2022/09/23 00:31:43;;;;;;;10.70;7.80;;;;;;;7.15;100.00;97074.45;108158;1270;22687;-80
2022/09/23 00:34:14;;;;;;;8.50;7.00;;;;;;;7.16;100.00;97072.04;108122;1270;22538;-80
2022/09/23 00:36:45;;;;;;;9.70;8.40;;;;;;;7.16;100.00;97069.55;108146;1270;24467;-80
2022/09/23 00:39:17;;;;;;;9.80;7.60;;;;;;;7.14;100.00;97066.21;108041;1270;30696;-80
2022/09/23 00:41:48;;;;;;;9.90;7.70;;;;;;;7.13;100.00;97062.52;108174;1270;24247;-80
2022/09/23 00:44:44;;;;;;;9.80;7.90;;;;;;;7.13;100.00;97063.46;108202;1270;22572;-80
2022/09/23 00:47:21;;;;;;;11.20;8.30;;;;;;;7.13;100.00;97066.67;108106;1270;22542;-80
2022/09/23 00:49:59;;;;;;;9.10;7.80;;;;;;;7.12;100.00;97065.88;108060;1270;35617;-80
2022/09/23 00:52:32;;;;;;;9.20;8.20;;;;;;;7.10;100.00;97065.91;108237;1268;25367;-80
2022/09/23 00:55:06;;;;;;;11.00;9.40;;;;;;;7.09;100.00;97067.80;108235;1268;24230;-80
2022/09/23 00:57:40;;;;;;;10.20;7.80;;;;;;;7.08;100.00;97063.78;108245;1268;23078;-81
2022/09/23 01:00:16;;;;;;;9.80;8.40;;;;;;;7.07;100.00;97065.23;108067;1270;28506;-80
2022/09/23 01:02:48;;;;;;;9.50;7.80;;;;;;;7.06;100.00;97062.02;108164;1270;22740;-80
2022/09/23 01:05:20;;;;;;;10.50;7.30;;;;;;;7.03;100.00;97060.81;108082;1268;25380;-80
2022/09/23 01:07:52;;;;;;;9.30;7.50;;;;;;;7.01;100.00;97056.51;108158;1270;22568;-80
2022/09/23 01:10:25;;;;;;;9.10;7.60;;;;;;;6.98;100.00;97051.77;108062;1270;23962;-79
2022/09/23 01:13:15;;;;;;;9.70;7.60;;;;;;;6.95;100.00;97049.90;108147;1270;22559;-80
2022/09/23 01:15:53;;;;;;;9.80;7.20;;;;;;;6.92;100.00;97050.55;108121;1270;22535;-80
2022/09/23 01:18:37;;;;;;;10.00;7.80;;;;;;;6.90;100.00;97049.14;107995;1270;25245;-79
2022/09/23 01:21:30;;;;;;;10.10;7.40;;;;;;;6.89;100.00;97048.13;108046;1270;22634;-80
2022/09/23 01:24:34;;;;;;;9.20;7.60;;;;;;;6.89;100.00;97048.75;108047;1271;22640;-79
2022/09/23 01:27:16;;;;;;;10.00;6.90;;;;;;;6.88;100.00;97047.11;108181;1270;23136;-80
2022/09/23 01:30:07;;;;;;;9.00;7.60;;;;;;;6.89;100.00;97048.02;108096;1270;28867;-80
2022/09/23 01:32:54;;;;;;;9.50;8.00;;;;;;;6.89;100.00;97041.95;108114;1270;24532;-80
2022/09/23 01:35:34;;;;;;;10.40;7.90;;;;;;;6.88;100.00;97044.93;108181;1270;22571;-79
2022/09/23 01:38:16;;;;;;;11.60;8.00;;;;;;;6.87;100.00;97043.41;108143;1270;22661;-80
2022/09/23 01:40:52;;;;;;;9.50;8.20;;;;;;;6.87;100.00;97045.14;108136;1270;22538;-80
2022/09/23 01:43:32;;;;;;;9.90;8.10;;;;;;;6.88;100.00;97043.83;107985;1268;22646;-79
2022/09/23 01:46:08;;;;;;;10.20;7.90;;;;;;;6.89;100.00;97043.31;108172;1268;22492;-80
2022/09/23 01:48:48;;;;;;;8.70;7.80;;;;;;;6.89;100.00;97045.70;108013;1270;29590;-79
2022/09/23 01:51:25;;;;;;;10.10;8.20;;;;;;;6.88;100.00;97043.05;108105;1270;24259;-80
2022/09/23 01:54:04;;;;;;;10.50;7.70;;;;;;;6.90;100.00;97041.72;108097;1270;23808;-79
2022/09/23 01:56:39;;;;;;;10.50;8.40;;;;;;;6.91;100.00;97039.00;108120;1270;24301;-79
2022/09/23 01:59:16;;;;;;;12.00;9.90;;;;;;;6.91;100.00;97039.36;108060;1269;23205;-79
2022/09/23 02:01:53;;;;;;;11.20;9.80;;;;;;;6.92;100.00;97044.39;108154;1270;23887;-79
2022/09/23 02:04:30;;;;;;;11.00;8.80;;;;;;;6.92;100.00;97045.13;108110;1270;24814;-79
2022/09/23 02:07:03;;;;;;;10.60;8.40;;;;;;;6.90;100.00;97041.15;108139;1270;22536;-80
2022/09/23 02:09:41;;;;;;;10.40;8.70;;;;;;;6.90;100.00;97041.15;107990;1270;30950;-79
2022/09/23 02:12:17;;;;;;;9.70;7.50;;;;;;;6.89;100.00;97038.90;108078;1270;22679;-79
2022/09/23 02:14:53;;;;;;;9.30;6.80;;;;;;;6.89;100.00;97038.25;108073;1270;22538;-80
2022/09/23 02:17:30;;;;;;;9.50;6.70;;;;;;;6.89;100.00;97038.63;108075;1270;25296;-79
2022/09/23 02:20:06;;;;;;;9.40;7.20;;;;;;;6.88;100.00;97041.20;107976;1270;28352;-79
2022/09/23 02:22:45;;;;;;;8.80;6.80;;;;;;;6.87;100.00;97041.45;108136;1270;23239;-79
2022/09/23 02:25:17;;;;;;;9.80;8.10;;;;;;;6.87;100.00;97041.61;108112;1270;22523;-79
2022/09/23 02:27:56;;;;;;;11.60;9.90;;;;;;;6.87;100.00;97039.45;108075;1270;22536;-79
2022/09/23 02:30:32;;;;;;;13.50;10.00;;;;;;;6.87;100.00;97039.92;108023;1270;31482;-79
2022/09/23 02:33:06;;;;;;;12.10;10.80;;;;;;;6.88;100.00;97039.77;108040;1270;25282;-79
2022/09/23 02:35:48;;;;;;;10.90;8.50;;;;;;;6.89;100.00;97040.16;108132;1270;24233;-79
2022/09/23 02:38:28;;;;;;;11.30;8.40;;;;;;;6.90;100.00;97037.17;108112;1270;22646;-79
2022/09/23 02:41:04;;;;;;;12.40;9.30;;;;;;;6.91;100.00;97041.05;108093;1271;22738;-79
2022/09/23 02:43:43;;;;;;;13.60;11.20;;;;;;;6.91;100.00;97042.23;108158;1270;22756;-80
2022/09/23 02:46:15;;;;;;;13.10;11.70;;;;;;;6.90;100.00;97037.82;108133;1270;22526;-80
2022/09/23 02:48:51;;;;;;;13.30;11.50;;;;;;;6.90;100.00;97033.70;108101;1268;23691;-79
2022/09/23 02:51:24;;;;;;;14.10;12.30;;;;;;;6.91;100.00;97037.52;108185;1268;22561;-79
2022/09/23 02:53:58;;;;;;;14.70;12.70;;;;;;;6.92;100.00;97038.27;108144;1269;26037;-79
2022/09/23 02:56:29;;;;;;;13.90;10.70;;;;;;;6.93;100.00;97036.54;108269;1267;24314;-80
2022/09/23 02:59:00;;;;;;;9.20;7.60;;;;;;;6.93;100.00;97038.02;108088;1270;26548;-79
2022/09/23 03:01:55;;;;;;;10.70;7.70;;;;;;;6.93;100.00;97041.28;108262;1267;22613;-79
2022/09/23 03:04:37;;;;;;;11.20;8.00;;;;;;;6.93;100.00;97039.98;108214;1268;22594;-79
2022/09/23 03:07:17;;;;;;;9.10;7.30;;;;;;;6.93;100.00;97034.27;108184;1269;22633;-80
2022/09/23 03:09:56;;;;;;;9.40;7.10;;;;;;;6.91;100.00;97033.52;108167;1268;25898;-79
2022/09/23 03:12:36;;;;;;;9.70;7.70;;;;;;;6.90;100.00;97033.85;108274;1268;22545;-79
2022/09/23 03:15:22;;;;;;;10.00;7.90;;;;;;;6.90;100.00;97039.45;108218;1268;25252;-80
2022/09/23 03:18:15;;;;;;;11.10;8.60;;;;;;;6.89;100.00;97036.26;108168;1268;23153;-79
2022/09/23 03:20:52;;;;;;;10.10;7.60;;;;;;;6.89;100.00;97035.89;108228;1268;22706;-79
2022/09/23 03:23:32;;;;;;;9.70;8.50;;;;;;;6.90;100.00;97034.42;108171;1268;22535;-79
2022/09/23 03:26:07;;;;;;;8.90;7.10;;;;;;;6.91;100.00;97029.61;108167;1271;25389;-79
2022/09/23 03:28:43;;;;;;;12.10;8.90;;;;;;;6.93;100.00;97028.95;108042;1268;29135;-79
2022/09/23 03:31:16;;;;;;;10.70;9.00;;;;;;;6.95;100.00;97031.40;108112;1270;22702;-80
2022/09/23 03:33:51;;;;;;;13.70;10.90;;;;;;;6.97;100.00;97028.31;108095;1270;24266;-79
2022/09/23 03:39:30;;;;;;;12.20;10.00;;;;;;;7.02;100.00;97024.73;108127;1271;27570;-80
2022/09/23 03:42:05;;;;;;;10.50;9.00;;;;;;;7.02;100.00;97018.66;108105;1271;22531;-79
2022/09/23 03:44:39;;;;;;;11.80;9.60;;;;;;;7.02;100.00;97019.51;108111;1271;23944;-79
2022/09/23 03:47:11;;;;;;;11.50;9.80;;;;;;;7.02;100.00;97020.61;108145;1270;22955;-79
2022/09/23 03:49:44;;;;;;;14.10;11.70;;;;;;;7.02;100.00;97016.60;108043;1270;31661;-79
2022/09/23 03:52:16;;;;;;;13.10;11.00;;;;;;;7.01;100.00;97013.70;108126;1270;22917;-80
2022/09/23 03:54:47;;;;;;;15.00;11.80;;;;;;;7.02;100.00;97015.91;108083;1271;22634;-80
2022/09/23 03:57:20;;;;;;;14.20;12.20;;;;;;;7.03;100.00;97016.62;108106;1270;22486;-80
2022/09/23 03:59:52;;;;;;;14.20;12.20;;;;;;;7.03;100.00;97017.95;108075;1269;38823;-79
2022/09/23 04:02:25;;;;;;;14.80;12.10;;;;;;;7.03;100.00;97015.72;108169;1268;22616;-79
2022/09/23 04:04:56;;;;;;;14.80;12.90;;;;;;;7.02;100.00;97013.34;108184;1271;22615;-79
2022/09/23 04:07:31;;;;;;;15.70;12.90;;;;;;;7.02;100.00;97015.39;108166;1268;22529;-79
2022/09/23 04:10:03;;;;;;;14.80;13.00;;;;;;;7.00;100.00;97013.80;108088;1270;34681;-79
2022/09/23 04:12:35;;;;;;;14.80;13.00;;;;;;;7.00;100.00;97016.54;108196;1268;22552;-79
2022/09/23 04:15:10;;;;;;;15.50;13.50;;;;;;;7.00;100.00;97014.64;108131;1271;23963;-80
2022/09/23 04:17:42;;;;;;;14.90;12.90;;;;;;;7.00;100.00;97014.64;108095;1270;22536;-80
2022/09/23 04:20:13;;;;;;;16.00;13.90;;;;;;;7.01;100.00;97015.75;108053;1270;31434;-79
2022/09/23 04:22:44;;;;;;;19.20;14.00;;;;;;;7.01;100.00;97014.23;108166;1268;25017;-79
2022/09/23 04:25:15;;;;;;;16.70;14.30;;;;;;;7.02;100.00;97016.40;108196;1268;22544;-79
2022/09/23 04:27:46;;;;;;;16.70;13.80;;;;;;;7.03;100.00;97021.20;108183;1268;22898;-80
2022/09/23 04:30:18;;;;;;;15.00;13.40;;;;;;;7.03;100.00;97020.73;108074;1268;31635;-79
2022/09/23 04:32:52;;;;;;;15.60;13.90;;;;;;;7.04;100.00;97021.98;108144;1268;23903;-79
2022/09/23 04:35:23;;;;;;;16.20;13.90;;;;;;;7.07;100.00;97021.60;108156;1271;24233;-79
2022/09/23 04:37:54;;;;;;;15.90;13.90;;;;;;;7.08;100.00;97024.88;108149;1268;24103;-79
2022/09/23 04:40:28;;;;;;;15.10;13.50;;;;;;;7.08;100.00;97027.52;108094;1268;24014;-79
2022/09/23 04:42:59;;;;;;;16.40;13.60;;;;;;;7.09;100.00;97025.51;108102;1270;22535;-79
2022/09/23 04:45:30;;;;;;;16.70;14.90;;;;;;;7.10;100.00;97025.31;108155;1270;22535;-79
2022/09/23 04:48:02;;;;;;;15.40;13.40;;;;;;;7.11;100.00;97028.27;108181;1268;22539;-79
2022/09/23 04:50:34;;;;;;;16.00;14.30;;;;;;;7.12;100.00;97026.91;108053;1271;29643;-79
2022/09/23 04:53:09;;;;;;;17.60;15.70;;;;;;;7.13;100.00;97026.92;108126;1271;22568;-79
2022/09/23 04:55:40;;;;;;;16.80;13.60;;;;;;;7.14;100.00;97020.61;108096;1271;23828;-80
2022/09/23 04:58:12;;;;;;;16.70;14.60;;;;;;;7.16;100.00;97023.27;108188;1268;22552;-79
2022/09/23 05:00:43;;;;;;;19.40;16.40;;;;;;;7.18;100.00;97024.88;108081;1268;24638;-79
2022/09/23 05:03:15;;;;;;;20.50;18.10;;;;;;;7.20;100.00;97024.16;108164;1271;22549;-79
2022/09/23 05:05:47;;;;;;;20.40;18.10;;;;;;;7.20;100.00;97022.27;108141;1268;22506;-79
2022/09/23 05:08:18;;;;;;;24.00;19.80;;;;;;;7.23;100.00;97024.20;108089;1270;22509;-79
2022/09/23 05:10:49;;;;;;;22.50;19.00;;;;;;;7.25;100.00;97026.70;108085;1270;24232;-79
2022/09/23 05:13:20;;;;;;;20.80;18.40;;;;;;;7.27;100.00;97028.83;108099;1271;23865;-79
2022/09/23 05:15:56;;;;;;;21.90;18.30;;;;;;;7.28;100.00;97031.36;108157;1268;23576;-79
2022/09/23 05:18:30;;;;;;;21.50;19.20;;;;;;;7.30;100.00;97031.48;108004;1271;28844;-78
2022/09/23 05:21:02;;;;;;;20.80;18.50;;;;;;;7.34;100.00;97035.73;108101;1268;24172;-79
2022/09/23 05:23:34;;;;;;;22.60;19.20;;;;;;;7.38;100.00;97033.86;108109;1268;22607;-79
2022/09/23 05:26:07;;;;;;;20.30;18.00;;;;;;;7.43;100.00;97039.86;108051;1271;25399;-79
2022/09/23 05:28:40;;;;;;;21.40;18.90;;;;;;;7.48;100.00;97040.20;108090;1268;31108;-79
2022/09/23 05:31:13;;;;;;;19.50;17.50;;;;;;;7.52;100.00;97039.66;108126;1271;22507;-79
2022/09/23 05:33:47;;;;;;;19.50;17.00;;;;;;;7.56;100.00;97042.23;108122;1270;22788;-79
2022/09/23 05:36:19;;;;;;;19.00;17.00;;;;;;;7.60;100.00;97044.24;108087;1268;22711;-79
2022/09/23 05:38:53;;;;;;;19.30;17.10;;;;;;;7.63;100.00;97043.64;108037;1268;32060;-79
2022/09/23 05:41:26;;;;;;;19.40;16.80;;;;;;;7.64;100.00;97045.87;108148;1268;22564;-79
2022/09/23 05:43:58;;;;;;;19.50;17.20;;;;;;;7.67;100.00;97046.68;108161;1268;23796;-79
2022/09/23 05:46:31;;;;;;;18.30;16.10;;;;;;;7.70;100.00;97049.86;108140;1268;22577;-79
2022/09/23 05:49:04;;;;;;;19.40;16.90;;;;;;;7.72;100.00;97049.98;108111;1268;28200;-79
2022/09/23 05:51:37;;;;;;;17.80;15.90;;;;;;;7.77;100.00;97052.38;108117;1268;22534;-79
2022/09/23 05:54:08;;;;;;;17.40;15.50;;;;;;;7.81;100.00;97050.35;108121;1268;22550;-79
2022/09/23 05:56:39;;;;;;;16.80;15.00;;;;;;;7.83;100.00;97049.20;108128;1271;23974;-79
2022/09/23 05:59:13;;;;;;;15.60;13.90;;;;;;;7.87;100.00;97052.67;108083;1268;27835;-79
2022/09/23 06:01:45;;;;;;;14.90;13.30;;;;;;;7.91;100.00;97049.23;108164;1268;22534;-79
2022/09/23 06:04:17;;;;;;;16.60;14.50;;;;;;;7.96;100.00;97051.34;108140;1268;22562;-80
2022/09/23 06:06:48;;;;;;;16.70;15.00;;;;;;;8.01;100.00;97052.11;108047;1271;22576;-79
2022/09/23 06:09:19;;;;;;;17.10;15.30;;;;;;;8.06;100.00;97054.02;108069;1268;30206;-79
2022/09/23 06:11:50;;;;;;;24.70;21.50;;;;;;;8.10;100.00;97052.31;108107;1268;22545;-79
2022/09/23 06:14:22;;;;;;;22.10;18.90;;;;;;;8.17;100.00;97055.80;108111;1268;22527;-79
2022/09/23 06:16:53;;;;;;;24.10;20.20;;;;;;;8.22;100.00;97054.58;108136;1268;22549;-79
2022/09/23 06:19:24;;;;;;;21.90;18.70;;;;;;;8.28;100.00;97054.46;108046;1268;27101;-79
2022/09/23 06:21:55;;;;;;;21.30;18.00;;;;;;;8.31;100.00;97054.98;108140;1268;22533;-79
2022/09/23 06:24:26;;;;;;;23.60;18.70;;;;;;;8.38;100.00;97058.22;108118;1268;24955;-79
2022/09/23 06:26:59;;;;;;;18.80;16.80;;;;;;;8.46;100.00;97057.11;108056;1271;22590;-79
2022/09/23 06:29:31;;;;;;;20.20;18.10;;;;;;;8.52;100.00;97054.57;108096;1268;28536;-79
2022/09/23 06:32:04;;;;;;;25.00;22.30;;;;;;;8.60;100.00;97052.78;108134;1268;22583;-79
2022/09/23 06:34:35;;;;;;;25.60;21.50;;;;;;;8.63;100.00;97050.80;108076;1271;24014;-79
2022/09/23 06:37:06;;;;;;;21.40;19.10;;;;;;;8.64;100.00;97056.30;108044;1270;22915;-79
2022/09/23 06:39:38;;;;;;;22.50;20.10;;;;;;;8.68;100.00;97057.01;108034;1268;29226;-79
2022/09/23 06:42:10;;;;;;;26.60;23.80;;;;;;;8.72;100.00;97054.13;108105;1271;22577;-79
2022/09/23 06:44:41;;;;;;;26.70;23.90;;;;;;;8.75;100.00;97056.31;108120;1271;24236;-79
2022/09/23 06:47:13;;;;;;;26.80;23.80;;;;;;;8.76;100.00;97058.13;108115;1270;22530;-79
2022/09/23 06:49:44;;;;;;;23.00;20.00;;;;;;;8.82;100.00;97059.52;107959;1271;26204;-79
2022/09/23 06:52:15;;;;;;;27.10;23.10;;;;;;;8.87;100.00;97061.45;108109;1270;22692;-80
2022/09/23 06:54:48;;;;;;;27.90;23.00;;;;;;;8.89;100.00;97061.59;108079;1271;22531;-79
2022/09/23 06:57:19;;;;;;;25.90;21.80;;;;;;;8.97;100.00;97066.27;108108;1270;22586;-79
2022/09/23 06:59:50;;;;;;;20.70;18.50;;;;;;;9.07;100.00;97067.86;108084;1268;28497;-79
2022/09/23 07:02:22;;;;;;;21.20;18.60;;;;;;;9.12;100.00;97068.89;108125;1268;22681;-80
2022/09/23 07:04:55;;;;;;;20.20;17.40;;;;;;;9.20;100.00;97072.80;108149;1268;24294;-79
2022/09/23 07:07:30;;;;;;;22.40;19.80;;;;;;;9.26;100.00;97073.60;108224;1268;22533;-79
2022/09/23 07:10:01;;;;;;;21.10;18.40;;;;;;;9.14;100.00;97070.60;108151;1267;28136;-80
2022/09/23 07:12:32;;;;;;;20.70;17.30;;;;;;;9.16;100.00;97069.80;108111;1268;22541;-79
2022/09/23 07:15:04;;;;;;;19.60;17.50;;;;;;;9.26;100.00;97071.19;108231;1268;23771;-79
2022/09/23 07:17:35;;;;;;;17.50;14.90;;;;;;;9.39;100.00;97073.72;108145;1268;22553;-79
2022/09/23 07:20:08;;;;;;;16.40;14.10;;;;;;;9.46;100.00;97071.00;108167;1268;27622;-79
2022/09/23 07:22:39;;;;;;;16.60;14.70;;;;;;;9.51;100.00;97071.64;108246;1268;22527;-80
2022/09/23 07:25:11;;;;;;;15.40;13.80;;;;;;;9.53;100.00;97072.50;108176;1268;22539;-79
2022/09/23 07:27:42;;;;;;;16.20;13.00;;;;;;;9.61;100.00;97069.25;108230;1268;22541;-79
2022/09/23 07:30:15;;;;;;;16.00;13.10;;;;;;;9.83;100.00;97074.70;108175;1268;29125;-80
2022/09/23 07:32:46;;;;;;;14.10;11.70;;;;;;;10.07;99.05;97077.14;108142;1268;22669;-80
2022/09/23 07:35:18;;;;;;;13.40;12.10;;;;;;;10.25;98.84;97077.60;108255;1267;22557;-80
2022/09/23 07:37:50;;;;;;;13.10;11.70;;;;;;;10.74;99.31;97075.05;108245;1268;22682;-80
2022/09/23 07:40:22;;;;;;;13.50;12.10;;;;;;;11.74;99.53;97071.14;108204;1268;25411;-80
2022/09/23 07:42:54;;;;;;;11.20;10.00;;;;;;;13.62;99.77;97073.10;108301;1267;25122;-80
2022/09/23 07:45:28;;;;;;;10.90;9.80;;;;;;;15.98;98.35;97069.45;108192;1268;22534;-80
2022/09/23 07:47:59;;;;;;;11.10;9.50;;;;;;;17.39;91.76;97069.77;108277;1268;25927;-80
2022/09/23 07:50:31;;;;;;;10.20;9.10;;;;;;;17.06;85.22;97078.05;108219;1268;24673;-80
2022/09/23 07:53:03;;;;;;;11.30;10.00;;;;;;;16.11;82.70;97080.16;108253;1268;22538;-80
2022/09/23 07:55:35;;;;;;;13.20;11.20;;;;;;;15.20;81.56;97081.54;108279;1268;23265;-80
2022/09/23 07:58:06;;;;;;;10.90;9.80;;;;;;;15.23;83.57;97085.31;108216;1268;24224;-80
2022/09/23 08:00:38;;;;;;;10.90;9.80;;;;;;;15.28;82.99;97079.31;108158;1268;27858;-80
2022/09/23 08:03:10;;;;;;;11.90;10.70;;;;;;;14.59;79.14;97085.89;108186;1268;22607;-80
2022/09/23 08:05:41;;;;;;;11.90;10.70;;;;;;;13.68;79.55;97079.38;108218;1268;22591;-80
2022/09/23 08:08:13;;;;;;;13.20;11.70;;;;;;;13.06;81.14;97084.05;108132;1268;22526;-80
2022/09/23 08:10:45;;;;;;;12.60;10.70;;;;;;;13.21;83.14;97086.30;108042;1270;30318;-80
2022/09/23 08:13:16;;;;;;;13.00;11.70;;;;;;;13.88;83.72;97083.67;108116;1270;22660;-80
2022/09/23 08:15:50;;;;;;;12.60;11.30;;;;;;;15.05;83.16;97084.03;108095;1270;22566;-79
2022/09/23 08:18:22;;;;;;;10.70;9.60;;;;;;;15.84;80.60;97079.63;108022;1269;28320;-78
2022/09/23 08:20:55;;;;;;;12.50;10.60;;;;;;;15.35;74.30;97084.91;108126;1270;22592;-79
2022/09/23 08:23:26;;;;;;;11.50;10.30;;;;;;;14.01;75.00;97087.60;108012;1270;22579;-80
2022/09/23 08:26:01;;;;;;;13.00;11.60;;;;;;;13.24;75.60;97087.39;108122;1270;24463;-79
2022/09/23 08:28:34;;;;;;;14.30;12.00;;;;;;;12.49;75.94;97085.84;108043;1270;31587;-79
2022/09/23 08:31:07;;;;;;;12.40;11.00;;;;;;;12.75;79.40;97087.74;108083;1270;23909;-80
2022/09/23 08:33:38;;;;;;;12.20;9.60;;;;;;;14.64;81.63;97078.96;107977;1270;22556;-79
2022/09/23 08:36:10;;;;;;;10.10;9.00;;;;;;;16.03;77.35;97073.92;108045;1270;22529;-79
2022/09/23 08:38:41;;;;;;;10.00;8.80;;;;;;;17.07;78.61;97068.50;107954;1271;36433;-79
2022/09/23 08:41:19;;;;;;;10.80;9.20;;;;;;;19.20;78.40;97069.15;108070;1268;22526;-79
2022/09/23 08:43:54;;;;;;;8.50;6.40;;;;;;;20.46;71.61;97059.25;108132;1268;22560;-79
2022/09/23 08:46:31;;;;;;;8.00;6.90;;;;;;;20.86;70.62;97059.27;108063;1270;23853;-79
2022/09/23 08:49:05;;;;;;;8.70;7.60;;;;;;;21.12;67.33;97055.05;107924;1270;39514;-79
2022/09/23 08:51:41;;;;;;;7.80;6.90;;;;;;;19.72;63.74;97058.31;108018;1270;24239;-79
2022/09/23 08:54:16;;;;;;;11.60;10.10;;;;;;;17.48;61.34;97058.69;108083;1270;22557;-79
2022/09/23 08:56:52;;;;;;;9.40;7.80;;;;;;;15.43;62.28;97065.48;108073;1270;22548;-79
2022/09/23 08:59:28;;;;;;;9.80;8.60;;;;;;;13.98;64.33;97069.73;108076;1267;24278;-79
2022/09/23 09:02:05;;;;;;;12.30;9.70;;;;;;;12.98;66.74;97066.73;108225;1267;22554;-79
2022/09/23 09:04:43;;;;;;;13.90;12.20;;;;;;;12.43;68.86;97063.98;108132;1268;23837;-79
2022/09/23 09:07:19;;;;;;;15.90;12.10;;;;;;;12.10;70.84;97064.34;108226;1267;22552;-80
2022/09/23 09:09:56;;;;;;;14.30;11.70;;;;;;;11.85;71.72;97062.15;108038;1268;26681;-80
2022/09/23 09:12:32;;;;;;;14.00;12.30;;;;;;;11.35;72.86;97067.62;108083;1270;22563;-80
2022/09/23 09:15:09;;;;;;;15.10;11.80;;;;;;;11.05;74.37;97066.61;108073;1270;23712;-80
2022/09/23 09:17:47;;;;;;;14.40;10.30;;;;;;;11.23;76.08;97061.08;108110;1270;22622;-80
2022/09/23 09:20:31;;;;;;;10.40;8.70;;;;;;;11.78;77.05;97057.23;108064;1270;25588;-80
2022/09/23 09:23:07;;;;;;;9.20;7.50;;;;;;;12.27;76.01;97050.61;108037;1270;22674;-80
2022/09/23 09:25:43;;;;;;;9.90;7.40;;;;;;;12.31;75.43;97049.72;108103;1270;24231;-80
2022/09/23 09:28:23;;;;;;;9.60;7.00;;;;;;;12.14;74.41;97054.10;108038;1270;23712;-79
2022/09/23 09:31:01;;;;;;;10.10;7.40;;;;;;;12.07;74.77;97052.71;108060;1270;25263;-80
2022/09/23 09:33:41;;;;;;;9.20;6.30;;;;;;;12.17;75.28;97057.11;108112;1270;22558;-80
2022/09/23 09:36:24;;;;;;;8.70;6.90;;;;;;;12.25;75.05;97050.36;108118;1269;24240;-80
2022/09/23 09:38:57;;;;;;;8.30;7.10;;;;;;;12.03;73.49;97052.48;107975;1270;31436;-80
2022/09/23 09:41:31;;;;;;;7.90;6.70;;;;;;;11.86;74.67;97048.08;108156;1268;22525;-80
2022/09/23 09:44:09;;;;;;;8.40;6.30;;;;;;;12.25;75.02;97045.10;108098;1270;23958;-80
2022/09/23 09:47:00;;;;;;;8.90;6.20;;;;;;;12.45;74.11;97043.55;108127;1268;22549;-80
2022/09/23 09:49:40;;;;;;;7.20;5.80;;;;;;;12.78;74.56;97041.85;108036;1270;24348;-80
2022/09/23 09:52:20;;;;;;;9.00;5.70;;;;;;;12.90;73.38;97034.81;108150;1268;22799;-80
2022/09/23 09:54:58;;;;;;;8.50;6.20;;;;;;;12.30;70.70;97033.89;108063;1270;24263;-79
2022/09/23 09:57:43;;;;;;;7.30;5.00;;;;;;;11.69;71.10;97040.02;108139;1268;22627;-79
2022/09/23 10:00:37;;;;;;;6.10;4.70;;;;;;;11.31;71.68;97037.06;108047;1270;27889;-79
2022/09/23 10:03:31;;;;;;;6.10;4.20;;;;;;;11.16;72.55;97042.59;108072;1270;25396;-80
2022/09/23 10:06:16;;;;;;;4.90;3.90;;;;;;;11.54;74.15;97038.23;108087;1270;22526;-80
2022/09/23 10:09:04;;;;;;;6.30;4.60;;;;;;;12.06;74.20;97036.20;108033;1269;27798;-79
2022/09/23 10:11:36;;;;;;;5.20;4.20;;;;;;;12.37;73.07;97036.86;108216;1268;24368;-79
2022/09/23 10:14:16;;;;;;;6.40;4.50;;;;;;;12.56;72.80;97032.49;108226;1267;22549;-80
2022/09/23 10:17:04;;;;;;;5.30;3.90;;;;;;;12.75;73.57;97029.55;108092;1268;22536;-80
2022/09/23 10:19:38;;;;;;;4.80;3.80;;;;;;;13.10;73.41;97025.98;108070;1268;30006;-79
2022/09/23 10:22:20;;;;;;;4.50;3.50;;;;;;;13.37;72.48;97022.60;108110;1270;23950;-80
2022/09/23 10:24:54;;;;;;;4.90;3.40;;;;;;;13.60;71.90;97020.71;108042;1270;25221;-80
2022/09/23 10:27:32;;;;;;;4.80;3.10;;;;;;;13.54;70.72;97018.08;108151;1270;22557;-80
2022/09/23 10:30:07;;;;;;;4.30;3.10;;;;;;;13.35;70.43;97011.75;108072;1268;33821;-80
2022/09/23 10:32:44;;;;;;;3.60;3.00;;;;;;;13.24;70.58;97013.39;108163;1268;22573;-80
2022/09/23 10:35:21;;;;;;;2.90;2.40;;;;;;;13.42;71.08;97014.70;108147;1270;22615;-80
2022/09/23 10:37:54;;;;;;;3.20;2.40;;;;;;;13.74;71.35;97013.68;108156;1268;22558;-80
2022/09/23 10:46:40;;;;;;;3.00;2.20;;;;;;;13.04;65.40;97005.92;108146;1268;25248;-81
2022/09/23 10:49:49;;;;;;;2.80;1.80;;;;;;;12.94;66.00;97005.02;108074;1270;26951;-80
2022/09/23 10:52:38;;;;;;;3.20;2.20;;;;;;;12.96;65.71;96996.80;108162;1268;22886;-80
2022/09/23 10:55:23;;;;;;;4.50;2.70;;;;;;;12.91;65.17;96993.56;108182;1268;22551;-80
2022/09/23 10:58:10;;;;;;;3.70;3.00;;;;;;;13.05;65.96;96989.27;108126;1268;22554;-80
2022/09/23 11:00:50;;;;;;;3.90;2.80;;;;;;;13.28;65.59;96986.97;108040;1268;27816;-80
2022/09/23 11:03:44;;;;;;;;;;;;;;;13.45;63.72;96987.30;108200;1268;22637;-80
2022/09/23 11:06:26;;;;;;;4.40;2.90;;;;;;;13.73;64.54;96990.95;108108;1268;22530;-80
2022/09/23 11:09:12;;;;;;;4.70;3.50;;;;;;;13.97;65.92;96988.73;108076;1268;35124;-80
2022/09/23 11:11:58;;;;;;;4.60;3.10;;;;;;;14.38;66.64;96986.31;108182;1268;22700;-80
2022/09/23 11:14:45;;;;;;;4.40;2.90;;;;;;;14.45;65.48;96979.17;108093;1270;22609;-80
2022/09/23 11:17:41;;;;;;;4.10;3.20;;;;;;;14.25;64.91;96978.24;108172;1268;24325;-80
2022/09/23 11:20:37;;;;;;;4.90;3.10;;;;;;;13.97;64.53;96976.95;108115;1268;30329;-80
2022/09/23 11:23:32;;;;;;;4.00;2.80;;;;;;;13.81;64.99;96976.17;108092;1270;22584;-80
2022/09/23 11:26:13;;;;;;;5.00;2.90;;;;;;;13.62;64.18;96973.10;108071;1270;22628;-80
2022/09/23 11:29:03;;;;;;;4.40;3.20;;;;;;;13.40;63.37;96974.14;108100;1268;24725;-79
2022/09/23 11:31:37;;;;;;;;;;;;;;;13.23;63.68;96971.65;108155;1268;25310;-80
2022/09/23 11:34:30;;;;;;;4.70;3.20;;;;;;;13.15;64.75;96967.79;108123;1270;22543;-80
2022/09/23 11:37:08;;;;;;;4.60;2.90;;;;;;;13.27;65.19;96964.95;108190;1268;23831;-80
2022/09/23 11:39:46;;;;;;;5.40;3.80;;;;;;;13.44;65.17;96965.32;108006;1270;24265;-80
2022/09/23 11:42:24;;;;;;;5.20;3.30;;;;;;;13.50;64.94;96961.75;108139;1270;24373;-80
2022/09/23 11:45:00;;;;;;;4.50;3.00;;;;;;;13.60;64.24;96962.67;108102;1270;23897;-80
2022/09/23 11:47:36;;;;;;;3.70;2.80;;;;;;;13.75;64.81;96962.94;108100;1270;22810;-80
2022/09/23 11:50:17;;;;;;;3.80;2.80;;;;;;;14.03;64.29;96955.52;108069;1268;33820;-80
2022/09/23 11:52:57;;;;;;;7.50;4.60;;;;;;;13.91;61.43;96952.57;108109;1270;23826;-80
2022/09/23 11:55:33;;;;;;;7.00;4.80;;;;;;;13.36;61.98;96961.67;108104;1270;22488;-80
2022/09/23 11:58:11;;;;;;;6.00;4.80;;;;;;;13.08;64.09;96962.33;108151;1268;22625;-81
2022/09/23 12:00:52;;;;;;;9.20;5.70;;;;;;;12.94;65.20;96961.06;108109;1268;31008;-81
2022/09/23 12:03:24;;;;;;;;;;;;;;;12.78;65.70;96960.35;108104;1270;22775;-80
2022/09/23 12:06:06;;;;;;;7.60;5.60;;;;;;;12.40;65.51;96959.20;108207;1268;22541;-80